Time;durP1;ratioP1;P1;durP2;ratioP2;P2;SDS_P1;SDS_P2;PMS_P1;PMS_P2;Temp;Humidity;BMP_temperature;BMP_pressure;BME280_temperature;BME280_humidity;BME280_pressure;Samples;Min_cycle;Max_cycle;Signal;HPM_P1;HPM_P2
2022/01/08 00:02:25;;;;;;;19.38;7.32;;;;;;;0.94;100.00;101095.56;5270069;28;20024;-74
2022/01/08 00:04:55;;;;;;;23.48;6.95;;;;;;;0.92;100.00;101102.75;5266300;28;20122;-73
2022/01/08 00:07:27;;;;;;;24.10;6.88;;;;;;;0.93;100.00;101112.34;5284193;28;20055;-73
2022/01/08 00:09:57;;;;;;;22.73;6.85;;;;;;;0.95;100.00;101110.44;5278536;28;20032;-73
2022/01/08 00:12:28;;;;;;;26.02;7.18;;;;;;;0.95;100.00;101118.38;5285302;28;20366;-73
2022/01/08 00:14:58;;;;;;;23.88;7.20;;;;;;;0.96;100.00;101114.81;5286482;28;20119;-72
2022/01/08 00:17:29;;;;;;;23.67;7.20;;;;;;;0.95;100.00;101115.72;5286848;28;20015;-72
2022/01/08 00:19:59;;;;;;;22.45;7.35;;;;;;;0.93;100.00;101115.84;5272975;28;20040;-72
2022/01/08 00:22:30;;;;;;;30.95;9.52;;;;;;;0.90;100.00;101123.09;5265817;28;20027;-73
2022/01/08 00:25:00;;;;;;;23.98;8.95;;;;;;;0.86;100.00;101132.19;5278226;28;20358;-73
2022/01/08 00:27:31;;;;;;;26.02;8.48;;;;;;;0.83;100.00;101135.88;5275962;28;20349;-73
2022/01/08 00:30:03;;;;;;;26.23;7.90;;;;;;;0.89;100.00;101138.09;5286663;28;20026;-73
2022/01/08 00:32:33;;;;;;;24.50;7.80;;;;;;;0.93;100.00;101133.50;5286741;28;20059;-73
2022/01/08 00:35:04;;;;;;;26.75;7.80;;;;;;;0.98;100.00;101141.97;5283287;28;20063;-73
2022/01/08 00:37:37;;;;;;;29.95;8.05;;;;;;;1.04;100.00;101139.78;5273848;28;20020;-73
2022/01/08 00:40:09;;;;;;;28.08;8.43;;;;;;;1.07;100.00;101130.81;5285872;28;20024;-73
2022/01/08 00:42:40;;;;;;;33.15;10.80;;;;;;;1.06;100.00;101131.78;5285821;27;20047;-72
2022/01/08 00:45:10;;;;;;;28.15;11.05;;;;;;;1.07;100.00;101124.69;5274005;28;20116;-72
2022/01/08 00:47:41;;;;;;;26.88;9.48;;;;;;;1.00;100.00;101126.84;5286585;28;20024;-72
2022/01/08 00:50:12;;;;;;;33.85;12.32;;;;;;;0.93;100.00;101123.78;5286008;28;20829;-72
2022/01/08 00:52:43;;;;;;;35.78;12.57;;;;;;;0.87;100.00;101134.72;5282716;28;20063;-72
2022/01/08 00:55:14;;;;;;;28.63;10.85;;;;;;;0.86;100.00;101124.28;5264820;28;20082;-73
2022/01/08 00:57:44;;;;;;;24.52;8.98;;;;;;;0.83;100.00;101130.56;5265176;28;20063;-72
2022/01/08 01:00:15;;;;;;;26.52;9.00;;;;;;;0.84;100.00;101128.78;5265081;28;20103;-73
2022/01/08 01:02:45;;;;;;;35.85;7.80;;;;;;;0.81;100.00;101134.28;5284823;28;20023;-74
2022/01/08 01:05:16;;;;;;;28.42;8.80;;;;;;;0.82;100.00;101138.59;5272033;28;20032;-73
2022/01/08 01:07:47;;;;;;;27.90;9.38;;;;;;;0.82;100.00;101147.38;5277602;28;20087;-73
2022/01/08 01:10:18;;;;;;;22.20;7.68;;;;;;;0.77;100.00;101137.09;5265426;28;20032;-73
2022/01/08 01:12:48;;;;;;;23.10;7.80;;;;;;;0.75;100.00;101132.84;5286133;28;20281;-73
2022/01/08 01:15:19;;;;;;;21.77;8.13;;;;;;;0.73;100.00;101132.94;5283077;28;20028;-73
2022/01/08 01:17:49;;;;;;;20.48;7.15;;;;;;;0.72;100.00;101133.06;5264960;28;20016;-73
2022/01/08 01:20:21;;;;;;;21.35;5.40;;;;;;;0.74;100.00;101134.63;5278385;28;20146;-74
2022/01/08 01:23:11;;;;;;;23.48;6.63;;;;;;;0.80;100.00;101135.19;5265096;28;20024;-74
2022/01/08 01:25:48;;;;;;;23.92;5.80;;;;;;;0.77;100.00;101145.03;5272204;28;20020;-72
2022/01/08 01:42:40;;;;;;;20.30;5.00;;;;;;;0.70;100.00;101156.94;5285035;28;20051;-72
2022/01/08 01:48:00;;;;;;;16.15;4.55;;;;;;;0.74;100.00;101168.97;5282930;28;20106;-73
2022/01/08 01:50:30;;;;;;;12.15;4.18;;;;;;;0.75;100.00;101168.06;5285149;28;20110;-73
2022/01/08 01:53:01;;;;;;;20.20;3.80;;;;;;;0.78;100.00;101172.28;5270912;28;20398;-72
2022/01/08 01:55:31;;;;;;;11.35;4.07;;;;;;;0.80;100.00;101186.22;5285241;28;20396;-72
2022/01/08 01:58:05;;;;;;;13.20;4.55;;;;;;;0.81;100.00;101187.09;5264719;28;20121;-73
2022/01/08 02:00:37;;;;;;;20.60;3.95;;;;;;;0.80;100.00;101198.59;5277922;28;20028;-74
2022/01/08 02:03:07;;;;;;;11.70;3.67;;;;;;;0.82;100.00;101184.34;5285089;28;20038;-72
2022/01/08 02:05:38;;;;;;;20.30;5.85;;;;;;;0.84;100.00;101187.75;5285444;28;20472;-73
2022/01/08 02:08:12;;;;;;;23.00;3.75;;;;;;;0.83;100.00;101193.97;5285749;28;20042;-73
2022/01/08 02:10:43;;;;;;;15.20;3.58;;;;;;;0.78;100.00;101194.25;5271660;28;20020;-73
2022/01/08 02:13:25;;;;;;;16.13;3.58;;;;;;;0.83;100.00;101195.78;5274014;28;20027;-73
2022/01/08 02:15:56;;;;;;;15.40;3.92;;;;;;;0.84;100.00;101186.91;5263922;28;20027;-74
2022/01/08 02:18:28;;;;;;;18.38;4.70;;;;;;;0.81;100.00;101198.50;5264414;28;20058;-73
2022/01/08 02:21:00;;;;;;;9.88;4.00;;;;;;;0.78;100.00;101188.97;5264129;28;20032;-73
2022/01/08 02:23:31;;;;;;;22.73;5.00;;;;;;;0.80;100.00;101188.03;5264420;28;20099;-72
2022/01/08 02:26:04;;;;;;;16.80;3.97;;;;;;;0.74;100.00;101198.03;5263635;28;20570;-73
2022/01/08 02:28:37;;;;;;;21.60;4.57;;;;;;;0.73;100.00;101192.84;5282910;28;20051;-74
2022/01/08 02:31:19;;;;;;;13.68;4.38;;;;;;;0.74;100.00;101198.03;5285002;28;20492;-72
2022/01/08 02:33:50;;;;;;;12.07;4.50;;;;;;;0.74;100.00;101198.03;5272861;28;20024;-74
2022/01/08 02:36:20;;;;;;;16.52;4.40;;;;;;;0.74;100.00;101192.75;5273527;28;20024;-74
2022/01/08 02:38:51;;;;;;;13.10;4.07;;;;;;;0.70;100.00;101193.03;5274757;28;20028;-73
2022/01/08 02:41:22;;;;;;;15.57;4.35;;;;;;;0.66;100.00;101186.25;5270223;28;20068;-73
2022/01/08 02:43:58;;;;;;;13.02;4.32;;;;;;;0.64;100.00;101185.47;5273286;28;20445;-72
2022/01/08 02:46:29;;;;;;;17.33;5.32;;;;;;;0.61;100.00;101191.81;5263639;28;20016;-72
2022/01/08 02:49:02;;;;;;;14.32;5.32;;;;;;;0.60;100.00;101187.44;5276487;28;20028;-72
2022/01/08 02:51:35;;;;;;;19.15;5.25;;;;;;;0.57;100.00;101184.19;5284866;28;20342;-72
2022/01/08 02:54:08;;;;;;;13.18;7.25;;;;;;;0.54;100.00;101174.63;5271296;28;20036;-73
2022/01/08 02:56:41;;;;;;;17.77;5.78;;;;;;;0.49;100.00;101182.84;5275118;28;20055;-72
2022/01/08 02:59:13;;;;;;;21.10;5.68;;;;;;;0.42;100.00;101181.53;5264104;28;20016;-71
2022/01/08 03:01:44;;;;;;;16.00;5.50;;;;;;;0.43;100.00;101180.56;5274618;28;20059;-71
2022/01/08 03:04:17;;;;;;;17.02;6.43;;;;;;;0.41;100.00;101178.97;5270712;28;20106;-72
2022/01/08 03:06:50;;;;;;;19.67;6.57;;;;;;;0.38;100.00;101177.38;5284830;28;20023;-72
2022/01/08 03:09:20;;;;;;;26.17;6.57;;;;;;;0.35;100.00;101184.59;5276145;28;20105;-72
2022/01/08 03:11:51;;;;;;;24.20;7.50;;;;;;;0.29;100.00;101187.63;5277884;28;20431;-72
2022/01/08 03:14:21;;;;;;;16.63;5.93;;;;;;;0.29;100.00;101184.97;5284122;28;20146;-71
2022/01/08 03:16:52;;;;;;;16.77;6.22;;;;;;;0.30;100.00;101192.81;5268307;28;20448;-72
2022/01/08 03:19:23;;;;;;;20.83;7.40;;;;;;;0.30;100.00;101198.06;5273291;28;20024;-71
2022/01/08 03:21:55;;;;;;;19.10;6.10;;;;;;;0.29;100.00;101184.97;5266962;28;20020;-71
2022/01/08 03:24:28;;;;;;;19.55;7.22;;;;;;;0.30;100.00;101191.94;5262966;28;20059;-72
2022/01/08 03:26:59;;;;;;;29.10;7.25;;;;;;;0.27;100.00;101184.25;5268773;28;20050;-72
2022/01/08 03:29:29;;;;;;;22.08;7.82;;;;;;;0.23;100.00;101181.78;5271278;28;20064;-70
2022/01/08 03:32:00;;;;;;;24.50;7.97;;;;;;;0.20;100.00;101183.72;5263217;28;20099;-70
2022/01/08 03:34:30;;;;;;;26.08;8.23;;;;;;;0.16;100.00;101179.59;5263846;28;20717;-71
2022/01/08 03:37:01;;;;;;;21.70;7.93;;;;;;;0.12;100.00;101178.94;5272834;28;20020;-70
2022/01/08 03:39:31;;;;;;;25.30;8.63;;;;;;;0.03;100.00;101174.19;5284306;28;20027;-70
2022/01/08 03:42:02;;;;;;;36.75;8.23;;;;;;;-0.02;100.00;101187.66;5275173;28;20503;-71
2022/01/08 03:44:33;;;;;;;23.70;9.65;;;;;;;-0.04;100.00;101188.69;5280266;28;20080;-71
2022/01/08 03:49:53;;;;;;;27.98;8.95;;;;;;;-0.05;100.00;101186.97;5284084;28;20106;-70
2022/01/08 03:52:26;;;;;;;21.60;8.45;;;;;;;-0.03;100.00;101180.69;5284020;28;20185;-70
2022/01/08 03:54:56;;;;;;;30.10;8.68;;;;;;;-0.05;100.00;101185.22;5283784;28;20023;-70
2022/01/08 03:57:27;;;;;;;30.55;9.27;;;;;;;-0.06;100.00;101182.66;5281102;28;20024;-70
2022/01/08 03:59:57;;;;;;;30.38;9.10;;;;;;;-0.08;100.00;101184.53;5263947;28;20016;-71
2022/01/08 04:02:28;;;;;;;27.33;9.32;;;;;;;-0.10;100.00;101194.31;5266927;28;20481;-71
2022/01/08 04:04:58;;;;;;;26.85;9.35;;;;;;;-0.13;100.00;101183.97;5278066;28;20031;-70
2022/01/08 04:07:29;;;;;;;25.00;8.93;;;;;;;-0.15;100.00;101186.69;5275428;28;20495;-70
2022/01/08 04:09:59;;;;;;;28.83;9.75;;;;;;;-0.13;100.00;101187.44;5283643;27;20483;-70
2022/01/08 04:12:37;;;;;;;32.53;9.70;;;;;;;-0.11;100.00;101192.63;5280874;28;20024;-70
2022/01/08 04:15:31;;;;;;;22.10;9.20;;;;;;;-0.16;100.00;101200.78;5281940;28;20460;-71
2022/01/08 04:17:59;;;;;;;27.08;9.90;;;;;;;-0.16;100.00;101198.16;5287725;28;20424;-70
2022/01/08 04:20:30;;;;;;;33.38;10.25;;;;;;;-0.17;100.00;101198.25;5287353;28;20026;-70
2022/01/08 04:23:01;;;;;;;33.67;10.25;;;;;;;-0.20;100.00;101201.06;5274744;28;20038;-70
2022/01/08 04:25:32;;;;;;;30.88;9.77;;;;;;;-0.21;100.00;101204.63;5286729;28;20023;-71
2022/01/08 04:28:02;;;;;;;29.40;9.07;;;;;;;-0.22;100.00;101208.22;5287694;27;20512;-72
2022/01/08 04:30:33;;;;;;;32.90;9.50;;;;;;;-0.23;100.00;101211.78;5279899;28;20492;-71
2022/01/08 04:33:03;;;;;;;33.08;9.32;;;;;;;-0.19;100.00;101218.59;5266204;28;20016;-71
2022/01/08 04:35:34;;;;;;;34.35;10.48;;;;;;;-0.14;100.00;101227.94;5271427;28;20028;-71
2022/01/08 04:38:05;;;;;;;40.40;11.73;;;;;;;-0.10;100.00;101229.47;5273331;27;20339;-71
2022/01/08 04:40:35;;;;;;;34.75;10.85;;;;;;;-0.09;100.00;101232.97;5277413;28;20024;-70
2022/01/08 04:43:06;;;;;;;28.35;9.75;;;;;;;-0.09;100.00;101238.22;5287039;28;20039;-71
2022/01/08 04:45:37;;;;;;;31.38;10.30;;;;;;;-0.13;100.00;101240.19;5286608;28;20080;-71
2022/01/08 04:48:07;;;;;;;37.17;10.38;;;;;;;-0.10;100.00;101244.41;5282177;28;20123;-71
2022/01/08 04:50:37;;;;;;;28.30;10.73;;;;;;;-0.11;100.00;101242.72;5265858;28;20076;-72
2022/01/08 04:53:08;;;;;;;26.92;10.52;;;;;;;-0.13;100.00;101239.34;5266139;28;20393;-70
2022/01/08 04:55:39;;;;;;;34.70;10.95;;;;;;;-0.12;100.00;101233.13;5279221;28;20062;-70
2022/01/08 04:58:09;;;;;;;31.65;10.75;;;;;;;-0.13;100.00;101228.78;5286702;28;20437;-71
2022/01/08 05:00:40;;;;;;;30.60;10.77;;;;;;;-0.17;100.00;101232.53;5285407;28;20076;-71
2022/01/08 05:03:11;;;;;;;34.90;11.82;;;;;;;-0.20;100.00;101241.47;5274289;28;20102;-71
2022/01/08 05:05:41;;;;;;;50.25;12.73;;;;;;;-0.22;100.00;101227.53;5270426;28;20030;-71
2022/01/08 05:08:12;;;;;;;29.17;11.88;;;;;;;-0.21;100.00;101236.28;5277978;28;20023;-71
2022/01/08 05:10:42;;;;;;;33.50;11.30;;;;;;;-0.20;100.00;101252.03;5271628;27;20068;-72
2022/01/08 05:13:13;;;;;;;41.90;12.15;;;;;;;-0.20;100.00;101238.84;5276846;28;20058;-71
2022/01/08 05:15:43;;;;;;;36.97;12.25;;;;;;;-0.17;100.00;101251.84;5281849;28;20028;-70
2022/01/08 05:18:14;;;;;;;37.63;12.52;;;;;;;-0.12;100.00;101243.66;5277751;28;20077;-70
2022/01/08 05:20:54;;;;;;;47.85;14.25;;;;;;;-0.08;100.00;101247.84;5272763;28;20020;-70
2022/01/08 05:23:24;;;;;;;39.83;14.10;;;;;;;0.01;100.00;101247.31;5284963;28;20109;-70
2022/01/08 05:25:55;;;;;;;44.20;12.98;;;;;;;0.05;100.00;101240.94;5274069;28;20016;-70
2022/01/08 05:28:25;;;;;;;33.42;12.93;;;;;;;0.09;100.00;101238.94;5272773;28;20100;-71
2022/01/08 05:30:56;;;;;;;48.63;13.90;;;;;;;0.14;100.00;101242.16;5286679;28;20027;-71
2022/01/08 05:33:26;;;;;;;42.15;14.60;;;;;;;0.19;100.00;101238.31;5272489;28;20069;-71
2022/01/08 05:35:57;;;;;;;44.70;14.27;;;;;;;0.22;100.00;101232.84;5275798;28;20024;-72
2022/01/08 05:38:27;;;;;;;34.05;14.63;;;;;;;0.29;100.00;101243.88;5265023;28;20016;-73
2022/01/08 05:40:58;;;;;;;40.50;14.60;;;;;;;0.33;100.00;101240.13;5267207;28;20020;-72
2022/01/08 05:43:29;;;;;;;48.53;15.48;;;;;;;0.29;100.00;101241.25;5264969;28;20548;-72
2022/01/08 05:45:59;;;;;;;46.83;14.23;;;;;;;0.31;100.00;101236.75;5264513;28;20048;-72
2022/01/08 05:48:30;;;;;;;45.97;16.60;;;;;;;0.31;100.00;101249.94;5264460;28;20473;-72
2022/01/08 05:51:00;;;;;;;52.28;17.05;;;;;;;0.32;100.00;101256.06;5267621;28;20027;-73
2022/01/08 05:53:30;;;;;;;41.75;16.02;;;;;;;0.31;100.00;101255.22;5285876;28;20389;-73
2022/01/08 05:56:01;;;;;;;41.65;16.20;;;;;;;0.31;100.00;101257.88;5285448;28;20024;-72
2022/01/08 05:58:32;;;;;;;48.85;18.77;;;;;;;0.32;100.00;101264.84;5285796;27;20027;-71
2022/01/08 06:01:02;;;;;;;49.85;17.17;;;;;;;0.32;100.00;101264.84;5271684;28;20027;-71
2022/01/08 06:03:32;;;;;;;51.40;19.13;;;;;;;0.30;100.00;101274.63;5273138;28;20711;-71
2022/01/08 06:06:03;;;;;;;44.72;17.67;;;;;;;0.28;100.00;101273.03;5264298;28;20103;-71
2022/01/08 06:08:33;;;;;;;53.17;18.60;;;;;;;0.27;100.00;101271.31;5279931;28;20092;-71
2022/01/08 06:11:04;;;;;;;54.60;19.30;;;;;;;0.27;100.00;101271.31;5267646;28;20032;-71
2022/01/08 06:13:34;;;;;;;51.42;20.52;;;;;;;0.29;100.00;101272.91;5264317;28;20024;-71
2022/01/08 06:16:05;;;;;;;63.30;21.40;;;;;;;0.32;100.00;101270.13;5272642;28;20118;-70
2022/01/08 06:18:36;;;;;;;58.28;20.70;;;;;;;0.34;100.00;101262.94;5269162;28;20027;-70
2022/01/08 06:21:07;;;;;;;53.63;21.08;;;;;;;0.36;100.00;101262.88;5264127;28;20020;-71
2022/01/08 06:23:38;;;;;;;49.60;19.50;;;;;;;0.36;100.00;101255.81;5267112;28;20026;-71
2022/01/08 06:26:09;;;;;;;62.05;22.27;;;;;;;0.38;100.00;101251.28;5273536;28;20031;-71
2022/01/08 06:28:40;;;;;;;64.95;22.25;;;;;;;0.44;100.00;101252.69;5283589;28;20012;-71
2022/01/08 06:31:10;;;;;;;64.03;22.38;;;;;;;0.45;100.00;101249.97;5271826;28;20012;-71
2022/01/08 06:33:42;;;;;;;71.25;22.90;;;;;;;0.44;100.00;101244.78;5268857;28;20035;-71
2022/01/08 06:36:13;;;;;;;78.43;22.95;;;;;;;0.41;100.00;101253.75;5277819;28;20084;-70
2022/01/08 06:38:45;;;;;;;61.05;24.20;;;;;;;0.37;100.00;101249.56;5274383;28;20027;-71
2022/01/08 06:41:16;;;;;;;59.13;22.27;;;;;;;0.34;100.00;101246.25;5273693;28;20020;-71
2022/01/08 06:43:46;;;;;;;73.13;24.25;;;;;;;0.33;100.00;101249.84;5261515;28;20358;-71
2022/01/08 06:46:17;;;;;;;73.28;24.05;;;;;;;0.30;100.00;101250.84;5264918;28;20057;-71
2022/01/08 06:48:48;;;;;;;68.50;23.13;;;;;;;0.33;100.00;101253.34;5281750;28;20064;-71
2022/01/08 06:51:18;;;;;;;67.13;24.35;;;;;;;0.36;100.00;101239.97;5267433;28;20011;-71
2022/01/08 06:53:49;;;;;;;72.68;23.35;;;;;;;0.37;100.00;101251.38;5282764;28;20031;-70
2022/01/08 06:56:21;;;;;;;76.70;24.23;;;;;;;0.37;100.00;101249.56;5282108;28;20023;-71
2022/01/08 06:58:51;;;;;;;74.22;24.48;;;;;;;0.39;100.00;101252.13;5268948;28;20032;-70
2022/01/08 07:01:22;;;;;;;72.68;24.85;;;;;;;0.42;100.00;101244.03;5281331;28;20466;-72
2022/01/08 07:03:55;;;;;;;71.55;23.67;;;;;;;0.42;100.00;101239.59;5282342;28;20024;-70
2022/01/08 07:06:25;;;;;;;67.95;23.33;;;;;;;0.47;100.00;101234.88;5281695;28;20098;-71
2022/01/08 07:08:56;;;;;;;68.72;23.45;;;;;;;0.49;100.00;101235.63;5282219;28;20114;-71
2022/01/08 07:11:26;;;;;;;76.13;22.77;;;;;;;0.51;100.00;101238.19;5282467;28;20277;-70
2022/01/08 07:13:57;;;;;;;67.82;22.55;;;;;;;0.52;100.00;101240.75;5281690;28;20071;-71
2022/01/08 07:16:27;;;;;;;61.45;22.10;;;;;;;0.58;100.00;101243.94;5281935;28;20055;-71
2022/01/08 07:18:58;;;;;;;73.35;21.88;;;;;;;0.64;100.00;101233.84;5281966;28;20024;-70
2022/01/08 07:21:29;;;;;;;63.90;21.27;;;;;;;0.71;100.00;101242.28;5281172;28;20059;-71
2022/01/08 07:23:59;;;;;;;59.40;21.50;;;;;;;0.73;100.00;101235.09;5268403;28;20200;-71
2022/01/08 07:26:30;;;;;;;67.55;20.58;;;;;;;0.77;100.00;101237.47;5279983;28;20106;-71
2022/01/08 07:29:00;;;;;;;63.75;21.85;;;;;;;0.78;100.00;101236.50;5269899;28;20078;-71
2022/01/08 07:31:31;;;;;;;59.55;20.00;;;;;;;0.81;100.00;101232.84;5281922;28;20111;-71
2022/01/08 07:34:02;;;;;;;57.72;20.80;;;;;;;0.81;100.00;101229.38;5281843;28;20024;-71
2022/01/08 07:36:33;;;;;;;60.78;19.50;;;;;;;0.76;100.00;101225.22;5274225;27;20231;-71
2022/01/08 07:39:04;;;;;;;61.38;21.13;;;;;;;0.78;100.00;101240.94;5286892;28;20423;-71
2022/01/08 07:41:35;;;;;;;71.22;22.00;;;;;;;0.81;100.00;101234.66;5267446;28;20024;-71
2022/01/08 07:44:05;;;;;;;68.20;21.25;;;;;;;0.85;100.00;101225.56;5279530;28;20023;-71
2022/01/08 07:46:36;;;;;;;62.58;19.40;;;;;;;0.86;100.00;101222.00;5283066;27;20031;-71
2022/01/08 07:49:09;;;;;;;51.42;18.17;;;;;;;0.88;100.00;101226.22;5278521;28;20477;-71
2022/01/08 07:51:39;;;;;;;56.88;19.20;;;;;;;0.90;100.00;101226.13;5285407;28;20468;-71
2022/01/08 07:54:10;;;;;;;52.72;16.85;;;;;;;0.94;100.00;101225.00;5286087;28;20023;-72
2022/01/08 07:56:40;;;;;;;54.35;17.15;;;;;;;0.99;100.00;101231.69;5285857;28;20446;-71
2022/01/08 07:59:11;;;;;;;54.67;18.35;;;;;;;1.02;100.00;101222.75;5282398;28;20028;-71
2022/01/08 08:01:41;;;;;;;48.28;15.60;;;;;;;1.04;100.00;101220.84;5275688;28;20389;-71
2022/01/08 08:04:12;;;;;;;50.97;16.52;;;;;;;1.05;100.00;101227.81;5283480;28;20028;-71
2022/01/08 08:06:44;;;;;;;52.70;17.10;;;;;;;1.06;100.00;101216.31;5266292;28;20489;-71
2022/01/08 08:09:15;;;;;;;53.67;16.73;;;;;;;1.08;100.00;101209.13;5285792;28;20097;-71
2022/01/08 08:11:45;;;;;;;47.15;15.45;;;;;;;1.11;100.00;101208.13;5286571;28;20103;-71
2022/01/08 08:14:16;;;;;;;49.40;15.73;;;;;;;1.10;100.00;101201.09;5279544;28;20031;-71
2022/01/08 08:16:46;;;;;;;56.47;15.98;;;;;;;1.11;100.00;101206.31;5267747;28;20016;-71
2022/01/08 08:19:17;;;;;;;43.53;13.77;;;;;;;1.13;100.00;101196.47;5287867;28;20101;-71
2022/01/08 08:21:47;;;;;;;48.90;13.45;;;;;;;1.17;100.00;101191.88;5271649;28;20031;-70
2022/01/08 08:24:20;;;;;;;45.35;13.55;;;;;;;1.21;100.00;101191.56;5266377;28;20491;-72
2022/01/08 08:26:50;;;;;;;43.45;14.23;;;;;;;1.23;100.00;101189.66;5270939;28;20489;-71
2022/01/08 08:29:21;;;;;;;36.60;13.77;;;;;;;1.23;100.00;101189.66;5275917;28;20024;-71
2022/01/08 08:31:51;;;;;;;40.65;13.10;;;;;;;1.25;100.00;101182.47;5266186;28;20053;-71
2022/01/08 08:34:22;;;;;;;42.10;13.57;;;;;;;1.23;100.00;101176.44;5266263;28;20073;-71
2022/01/08 08:36:52;;;;;;;54.55;14.88;;;;;;;1.26;100.00;101175.44;5268526;28;20020;-71
2022/01/08 08:39:25;;;;;;;42.75;13.50;;;;;;;1.27;100.00;101170.03;5265825;28;20404;-71
2022/01/08 08:41:55;;;;;;;55.65;14.23;;;;;;;1.25;100.00;101166.63;5269017;28;20028;-71
2022/01/08 08:44:27;;;;;;;37.60;13.63;;;;;;;1.29;100.00;101157.56;5281443;28;20021;-71
2022/01/08 08:46:57;;;;;;;39.95;13.35;;;;;;;1.36;100.00;101151.88;5286764;28;20042;-71
2022/01/08 08:49:27;;;;;;;32.13;13.05;;;;;;;1.36;100.00;101151.88;5286525;28;20408;-71
2022/01/08 08:51:58;;;;;;;36.92;14.25;;;;;;;1.35;100.00;101151.00;5287011;27;20084;-72
2022/01/08 08:54:29;;;;;;;42.67;13.20;;;;;;;1.38;100.00;101150.81;5273156;27;20055;-71
2022/01/08 08:57:00;;;;;;;36.92;14.60;;;;;;;1.43;100.00;101154.03;5287067;28;20089;-72
2022/01/08 08:59:30;;;;;;;48.90;13.20;;;;;;;1.49;100.00;101147.47;5280521;28;20038;-72
2022/01/08 09:02:01;;;;;;;44.28;13.02;;;;;;;1.53;100.00;101143.69;5278606;28;20020;-72
2022/01/08 09:04:31;;;;;;;45.45;13.07;;;;;;;1.59;100.00;101148.56;5279037;28;20023;-72
2022/01/08 09:07:03;;;;;;;33.65;12.43;;;;;;;1.63;100.00;101138.66;5268292;28;20028;-72
2022/01/08 09:09:34;;;;;;;44.20;12.70;;;;;;;1.67;100.00;101138.34;5277539;28;20032;-72
2022/01/08 09:12:05;;;;;;;38.30;12.27;;;;;;;1.77;100.00;101143.88;5279603;28;20073;-72
2022/01/08 09:14:36;;;;;;;32.60;12.48;;;;;;;1.85;100.00;101138.06;5286043;28;20062;-72
2022/01/08 09:17:06;;;;;;;29.73;11.50;;;;;;;1.88;100.00;101132.56;5286765;28;20023;-72
2022/01/08 09:19:37;;;;;;;31.25;10.93;;;;;;;1.91;100.00;101127.03;5286462;28;20396;-72
2022/01/08 09:22:08;;;;;;;29.50;13.27;;;;;;;1.96;100.00;101131.09;5286594;28;20101;-72
2022/01/08 09:24:40;;;;;;;30.83;9.95;;;;;;;2.02;100.00;101141.25;5273523;28;20470;-72
2022/01/08 09:27:11;;;;;;;38.83;10.13;;;;;;;2.08;100.00;101132.06;5265013;28;20028;-72
2022/01/08 09:29:42;;;;;;;23.48;8.82;;;;;;;2.15;100.00;101129.81;5279418;28;20349;-72
2022/01/08 09:32:12;;;;;;;26.23;8.27;;;;;;;2.14;100.00;101121.03;5277579;28;20318;-72
2022/01/08 09:34:44;;;;;;;52.15;10.32;;;;;;;2.19;100.00;101110.13;5264802;28;20024;-72
2022/01/08 09:37:15;;;;;;;27.75;8.32;;;;;;;2.24;100.00;101108.88;5274979;28;20023;-72
2022/01/08 09:39:45;;;;;;;25.80;7.40;;;;;;;2.25;100.00;101107.91;5268706;27;20032;-72
2022/01/08 09:42:16;;;;;;;20.65;7.50;;;;;;;2.31;100.00;101104.84;5267512;28;20088;-72
2022/01/08 09:44:46;;;;;;;20.83;6.35;;;;;;;2.33;100.00;101097.63;5264499;28;20038;-72
2022/01/08 09:47:17;;;;;;;21.58;7.30;;;;;;;2.39;100.00;101095.53;5265272;28;20099;-72
2022/01/08 09:49:48;;;;;;;23.77;7.65;;;;;;;2.39;100.00;101084.94;5264505;28;20023;-72
2022/01/08 09:52:19;;;;;;;19.38;6.97;;;;;;;2.45;100.00;101068.59;5264828;28;20020;-72
2022/01/08 09:54:49;;;;;;;19.50;7.03;;;;;;;2.42;100.00;101063.53;5264464;28;20035;-72
2022/01/08 09:57:20;;;;;;;20.13;7.32;;;;;;;2.48;100.00;101057.81;5278715;28;20022;-72
2022/01/08 09:59:51;;;;;;;21.75;8.02;;;;;;;2.52;100.00;101048.69;5276559;28;20024;-73
2022/01/08 10:02:23;;;;;;;14.55;5.82;;;;;;;2.55;100.00;101043.16;5267544;28;20026;-72
2022/01/08 10:05:06;;;;;;;11.02;5.32;;;;;;;2.62;100.00;101047.06;5274799;28;20040;-72
2022/01/08 10:07:37;;;;;;;18.10;6.22;;;;;;;2.62;100.00;101047.06;5271582;28;20024;-72
2022/01/08 10:10:12;;;;;;;15.63;5.10;;;;;;;2.65;100.00;101030.94;5270195;28;20397;-72
2022/01/08 10:13:02;;;;;;;15.80;4.88;;;;;;;2.68;100.00;101020.13;5271731;28;20019;-72
2022/01/08 10:18:30;;;;;;;12.30;4.70;;;;;;;2.68;100.00;101001.59;5270095;28;20028;-72
2022/01/08 10:21:34;;;;;;;18.27;5.07;;;;;;;2.73;100.00;101004.75;5264091;28;20028;-72
2022/01/08 10:24:08;;;;;;;12.95;4.97;;;;;;;2.80;100.00;100995.38;5272102;28;20061;-72
2022/01/08 10:26:41;;;;;;;12.18;4.60;;;;;;;2.86;100.00;100980.84;5284865;28;20373;-72
2022/01/08 10:29:14;;;;;;;11.57;4.55;;;;;;;2.92;100.00;100976.91;5274895;28;20020;-72
2022/01/08 10:31:47;;;;;;;13.52;5.68;;;;;;;2.94;100.00;100969.69;5263962;28;20066;-72
2022/01/08 10:34:21;;;;;;;13.75;4.32;;;;;;;2.93;100.00;100957.41;5264040;28;20020;-72
2022/01/08 10:37:12;;;;;;;11.30;4.20;;;;;;;3.03;100.00;100956.59;5272744;28;20035;-73
2022/01/08 10:39:42;;;;;;;10.50;3.83;;;;;;;2.97;100.00;100942.97;5284950;28;20554;-73
2022/01/08 10:42:17;;;;;;;11.85;4.25;;;;;;;2.94;100.00;100935.22;5273942;28;20114;-72
2022/01/08 10:44:50;;;;;;;16.93;4.47;;;;;;;2.98;100.00;100934.88;5264124;28;20496;-72
2022/01/08 10:47:21;;;;;;;14.13;4.95;;;;;;;2.92;100.00;100932.69;5263718;28;20035;-72
2022/01/08 10:50:08;;;;;;;11.93;4.13;;;;;;;2.93;100.00;100920.28;5263340;28;20035;-72
2022/01/08 10:52:42;;;;;;;9.30;4.57;;;;;;;2.96;100.00;100914.75;5269331;28;20034;-72
2022/01/08 10:55:13;;;;;;;13.20;5.13;;;;;;;2.94;100.00;100912.22;5269706;28;20116;-72
2022/01/08 10:57:47;;;;;;;19.65;5.80;;;;;;;2.98;100.00;100907.53;5274328;28;20566;-72
2022/01/08 11:00:19;;;;;;;11.05;4.40;;;;;;;2.99;100.00;100903.91;5272400;28;20038;-72
2022/01/08 11:02:50;;;;;;;12.63;5.03;;;;;;;3.08;100.00;100904.06;5276252;28;20024;-73
2022/01/08 11:05:21;;;;;;;8.07;4.70;;;;;;;3.12;100.00;100899.38;5273753;28;20028;-72
2022/01/08 11:07:51;;;;;;;9.10;3.90;;;;;;;3.19;100.00;100887.34;5276169;28;20085;-72
2022/01/08 11:10:23;;;;;;;13.68;5.55;;;;;;;3.27;100.00;100887.59;5270995;28;20484;-72
2022/01/08 11:12:54;;;;;;;12.13;4.80;;;;;;;3.31;100.00;100875.81;5260475;28;20077;-72
2022/01/08 11:15:36;;;;;;;13.52;4.32;;;;;;;3.28;100.00;100870.72;5271817;28;20031;-72
2022/01/08 11:18:06;;;;;;;11.15;3.88;;;;;;;3.24;100.00;100856.00;5272684;28;20012;-72
2022/01/08 11:20:37;;;;;;;10.57;4.53;;;;;;;3.25;100.00;100841.78;5268288;28;20043;-72
2022/01/08 11:23:11;;;;;;;10.27;4.03;;;;;;;3.25;100.00;100840.94;5264157;28;20039;-72
2022/01/08 11:25:47;;;;;;;10.43;4.38;;;;;;;3.23;100.00;100834.94;5269043;28;20031;-72
2022/01/08 11:28:18;;;;;;;15.75;5.13;;;;;;;3.23;100.00;100826.97;5273332;28;20066;-72
2022/01/08 11:30:53;;;;;;;16.42;4.90;;;;;;;3.21;100.00;100821.78;5279803;28;20396;-72
2022/01/08 11:33:28;;;;;;;10.93;4.75;;;;;;;3.23;100.00;100811.06;5274024;28;20027;-72
2022/01/08 11:35:59;;;;;;;;;;;;;;;3.20;100.00;100800.69;5268330;28;20028;-73
2022/01/08 11:38:29;;;;;;;11.07;4.00;;;;;;;3.21;100.00;100789.97;5265732;28;20357;-72
2022/01/08 11:41:00;;;;;;;8.52;4.22;;;;;;;3.30;100.00;100791.06;5261814;28;20528;-72
2022/01/08 11:43:32;;;;;;;8.38;4.25;;;;;;;3.32;100.00;100779.38;5275756;28;20115;-73
2022/01/08 11:46:05;;;;;;;13.90;4.38;;;;;;;3.29;100.00;100760.22;5267671;28;20404;-73
2022/01/08 11:48:42;;;;;;;13.82;4.40;;;;;;;3.25;100.00;100750.81;5276904;28;20027;-73
2022/01/08 11:51:32;;;;;;;11.05;5.30;;;;;;;3.24;100.00;100735.88;5268115;28;20092;-73
2022/01/08 11:54:04;;;;;;;10.23;3.78;;;;;;;3.17;100.00;100724.91;5279977;28;20094;-73
2022/01/08 11:56:37;;;;;;;9.20;4.32;;;;;;;3.15;100.00;100707.44;5260892;28;20056;-73